sensor_id;sensor_type;location;lat;lon;timestamp;P1;durP1;ratioP1;P2;durP2;ratioP2
40048;SDS011;54524;55.740;37.544;2023-12-20T00:01:03;0;;;0;;
40048;SDS011;54524;55.740;37.544;2023-12-20T00:02:04;0.9;;;0.5;;
40048;SDS011;54524;55.740;37.544;2023-12-20T00:03:05;0.9;;;0.5;;
40048;SDS011;54524;55.740;37.544;2023-12-20T00:04:05;2.1;;;0.5;;
40048;SDS011;54524;55.740;37.544;2023-12-20T00:05:06;2.3;;;0.5;;
40048;SDS011;54524;55.740;37.544;2023-12-20T00:06:07;1.6;;;0.5;;
40048;SDS011;54524;55.740;37.544;2023-12-20T00:07:07;1.6;;;0.8;;
40048;SDS011;54524;55.740;37.544;2023-12-20T00:08:08;1.6;;;0.8;;
40048;SDS011;54524;55.740;37.544;2023-12-20T00:09:08;1.7;;;0.8;;
40048;SDS011;54524;55.740;37.544;2023-12-20T00:11:03;1.9;;;1;;
40048;SDS011;54524;55.740;37.544;2023-12-20T00:12:04;1.9;;;1;;
40048;SDS011;54524;55.740;37.544;2023-12-20T00:13:05;1.6;;;1.1;;
40048;SDS011;54524;55.740;37.544;2023-12-20T00:14:07;1.9;;;1.1;;
40048;SDS011;54524;55.740;37.544;2023-12-20T00:15:08;1.9;;;1.1;;
40048;SDS011;54524;55.740;37.544;2023-12-20T00:16:09;2.5;;;1.5;;
40048;SDS011;54524;55.740;37.544;2023-12-20T00:17:09;2.5;;;1.5;;
40048;SDS011;54524;55.740;37.544;2023-12-20T00:18:10;2.6;;;1.5;;
40048;SDS011;54524;55.740;37.544;2023-12-20T00:19:10;4.5;;;1.5;;
40048;SDS011;54524;55.740;37.544;2023-12-20T00:21:03;4.5;;;1.5;;
40048;SDS011;54524;55.740;37.544;2023-12-20T00:22:04;3.5;;;1.7;;
40048;SDS011;54524;55.740;37.544;2023-12-20T00:23:04;3.4;;;1.7;;
40048;SDS011;54524;55.740;37.544;2023-12-20T00:24:05;3.5;;;1.7;;
40048;SDS011;54524;55.740;37.544;2023-12-20T00:25:06;2.2;;;1.6;;
40048;SDS011;54524;55.740;37.544;2023-12-20T00:26:07;2.1;;;1.6;;
40048;SDS011;54524;55.740;37.544;2023-12-20T00:27:07;2.1;;;1.6;;
40048;SDS011;54524;55.740;37.544;2023-12-20T00:28:08;0;;;0;;
40048;SDS011;54524;55.740;37.544;2023-12-20T00:29:08;2.7;;;1.8;;
40048;SDS011;54524;55.740;37.544;2023-12-20T00:31:04;0;;;0;;
40048;SDS011;54524;55.740;37.544;2023-12-20T00:32:05;3.3;;;1.8;;
40048;SDS011;54524;55.740;37.544;2023-12-20T00:33:05;3.3;;;1.8;;
40048;SDS011;54524;55.740;37.544;2023-12-20T00:34:06;2.6;;;2.3;;
40048;SDS011;54524;55.740;37.544;2023-12-20T00:35:07;2.8;;;2.3;;
40048;SDS011;54524;55.740;37.544;2023-12-20T00:36:07;2.7;;;2.3;;
40048;SDS011;54524;55.740;37.544;2023-12-20T00:37:08;3.2;;;2.2;;
40048;SDS011;54524;55.740;37.544;2023-12-20T00:38:09;3.1;;;2.2;;
40048;SDS011;54524;55.740;37.544;2023-12-20T00:39:10;3.1;;;2.2;;
40048;SDS011;54524;55.740;37.544;2023-12-20T00:41:03;3;;;1.9;;
40048;SDS011;54524;55.740;37.544;2023-12-20T00:42:04;3;;;1.9;;
40048;SDS011;54524;55.740;37.544;2023-12-20T00:43:04;2;;;1.8;;
40048;SDS011;54524;55.740;37.544;2023-12-20T00:44:05;2;;;1.8;;
40048;SDS011;54524;55.740;37.544;2023-12-20T00:45:06;2;;;1.8;;
40048;SDS011;54524;55.740;37.544;2023-12-20T00:46:06;1.9;;;1.7;;
40048;SDS011;54524;55.740;37.544;2023-12-20T00:47:07;3.2;;;1.8;;
40048;SDS011;54524;55.740;37.544;2023-12-20T00:48:08;3.2;;;1.9;;
40048;SDS011;54524;55.740;37.544;2023-12-20T00:49:08;3.3;;;1.4;;
40048;SDS011;54524;55.740;37.544;2023-12-20T00:51:04;3.2;;;1.5;;
40048;SDS011;54524;55.740;37.544;2023-12-20T00:52:05;2.7;;;1.4;;
40048;SDS011;54524;55.740;37.544;2023-12-20T00:53:05;2.7;;;1.4;;
40048;SDS011;54524;55.740;37.544;2023-12-20T00:54:06;2.6;;;1.4;;
40048;SDS011;54524;55.740;37.544;2023-12-20T00:55:06;2.7;;;1.4;;
40048;SDS011;54524;55.740;37.544;2023-12-20T00:56:07;2.7;;;1.4;;
40048;SDS011;54524;55.740;37.544;2023-12-20T00:57:08;2.8;;;1.5;;
40048;SDS011;54524;55.740;37.544;2023-12-20T00:58:09;2.8;;;1.4;;
40048;SDS011;54524;55.740;37.544;2023-12-20T00:59:09;3.6;;;1.5;;
40048;SDS011;54524;55.740;37.544;2023-12-20T01:01:04;3.7;;;1.5;;
40048;SDS011;54524;55.740;37.544;2023-12-20T01:02:04;3.7;;;1.5;;
40048;SDS011;54524;55.740;37.544;2023-12-20T01:03:05;3.3;;;1.9;;
40048;SDS011;54524;55.740;37.544;2023-12-20T01:04:05;3.7;;;1.9;;
40048;SDS011;54524;55.740;37.544;2023-12-20T01:05:06;2.8;;;2;;
40048;SDS011;54524;55.740;37.544;2023-12-20T01:06:07;2.8;;;2;;
40048;SDS011;54524;55.740;37.544;2023-12-20T01:07:08;2.8;;;1.9;;
40048;SDS011;54524;55.740;37.544;2023-12-20T01:08:08;2.9;;;2;;
40048;SDS011;54524;55.740;37.544;2023-12-20T01:09:09;3.1;;;2.1;;
40048;SDS011;54524;55.740;37.544;2023-12-20T01:11:03;2.9;;;1.8;;
40048;SDS011;54524;55.740;37.544;2023-12-20T01:12:04;2.6;;;1.8;;
40048;SDS011;54524;55.740;37.544;2023-12-20T01:13:05;2.6;;;1.8;;
40048;SDS011;54524;55.740;37.544;2023-12-20T01:14:05;2.6;;;1.8;;
40048;SDS011;54524;55.740;37.544;2023-12-20T01:15:06;2.2;;;1.8;;
40048;SDS011;54524;55.740;37.544;2023-12-20T01:16:08;2.1;;;1.7;;
40048;SDS011;54524;55.740;37.544;2023-12-20T01:17:09;2.3;;;1.7;;
40048;SDS011;54524;55.740;37.544;2023-12-20T01:18:09;1.7;;;1.4;;
40048;SDS011;54524;55.740;37.544;2023-12-20T01:19:10;1.8;;;1.5;;
40048;SDS011;54524;55.740;37.544;2023-12-20T01:21:02;2.1;;;1.4;;
40048;SDS011;54524;55.740;37.544;2023-12-20T01:22:03;2.1;;;1.4;;
40048;SDS011;54524;55.740;37.544;2023-12-20T01:23:04;2.1;;;1.4;;
40048;SDS011;54524;55.740;37.544;2023-12-20T01:24:04;3.3;;;1.6;;
40048;SDS011;54524;55.740;37.544;2023-12-20T01:25:05;3.4;;;1.5;;
40048;SDS011;54524;55.740;37.544;2023-12-20T01:26:07;3.4;;;1.6;;
40048;SDS011;54524;55.740;37.544;2023-12-20T01:27:07;2.2;;;2;;
40048;SDS011;54524;55.740;37.544;2023-12-20T01:28:08;2.2;;;2;;
40048;SDS011;54524;55.740;37.544;2023-12-20T01:29:08;2.3;;;2;;
40048;SDS011;54524;55.740;37.544;2023-12-20T01:31:03;3;;;2.1;;
40048;SDS011;54524;55.740;37.544;2023-12-20T01:32:04;3;;;2.1;;
40048;SDS011;54524;55.740;37.544;2023-12-20T01:33:05;3.8;;;1.9;;
40048;SDS011;54524;55.740;37.544;2023-12-20T01:34:05;3.8;;;1.9;;
40048;SDS011;54524;55.740;37.544;2023-12-20T01:35:06;3.9;;;1.9;;
40048;SDS011;54524;55.740;37.544;2023-12-20T01:36:07;3.7;;;1.4;;
40048;SDS011;54524;55.740;37.544;2023-12-20T01:37:08;3.9;;;1.4;;
40048;SDS011;54524;55.740;37.544;2023-12-20T01:38:08;4;;;1.4;;
40048;SDS011;54524;55.740;37.544;2023-12-20T01:39:09;4;;;1.4;;
40048;SDS011;54524;55.740;37.544;2023-12-20T01:41:03;2.4;;;1.3;;
40048;SDS011;54524;55.740;37.544;2023-12-20T01:42:03;2.4;;;1.2;;
40048;SDS011;54524;55.740;37.544;2023-12-20T01:43:06;2.1;;;1.1;;
40048;SDS011;54524;55.740;37.544;2023-12-20T01:44:07;2.2;;;1.1;;
40048;SDS011;54524;55.740;37.544;2023-12-20T01:45:07;2.3;;;1.1;;
40048;SDS011;54524;55.740;37.544;2023-12-20T01:46:08;1.9;;;0.9;;
40048;SDS011;54524;55.740;37.544;2023-12-20T01:47:09;1.9;;;0.9;;
40048;SDS011;54524;55.740;37.544;2023-12-20T01:48:10;1.9;;;0.9;;
40048;SDS011;54524;55.740;37.544;2023-12-20T01:49:11;1.8;;;0.9;;
40048;SDS011;54524;55.740;37.544;2023-12-20T01:51:03;2.1;;;0.9;;
40048;SDS011;54524;55.740;37.544;2023-12-20T01:52:04;2.1;;;0.7;;
40048;SDS011;54524;55.740;37.544;2023-12-20T01:53:05;2.1;;;0.7;;
40048;SDS011;54524;55.740;37.544;2023-12-20T01:54:07;2.1;;;0.7;;
40048;SDS011;54524;55.740;37.544;2023-12-20T01:55:08;2.9;;;1;;
40048;SDS011;54524;55.740;37.544;2023-12-20T01:56:13;2.9;;;1;;
40048;SDS011;54524;55.740;37.544;2023-12-20T01:57:14;2.9;;;1;;
40048;SDS011;54524;55.740;37.544;2023-12-20T01:58:16;2.4;;;1.2;;
40048;SDS011;54524;55.740;37.544;2023-12-20T01:59:17;2.4;;;1.2;;
40048;SDS011;54524;55.740;37.544;2023-12-20T02:01:03;2.3;;;1;;
40048;SDS011;54524;55.740;37.544;2023-12-20T02:02:04;2.4;;;1.1;;
40048;SDS011;54524;55.740;37.544;2023-12-20T02:03:04;2.4;;;1.1;;
40048;SDS011;54524;55.740;37.544;2023-12-20T02:04:05;2.5;;;1.2;;
40048;SDS011;54524;55.740;37.544;2023-12-20T02:05:05;2.6;;;1.3;;
40048;SDS011;54524;55.740;37.544;2023-12-20T02:06:06;2.6;;;1.3;;
40048;SDS011;54524;55.740;37.544;2023-12-20T02:07:07;3.2;;;1.2;;
40048;SDS011;54524;55.740;37.544;2023-12-20T02:08:08;4.2;;;1.3;;
40048;SDS011;54524;55.740;37.544;2023-12-20T02:09:09;4.2;;;1.2;;
40048;SDS011;54524;55.740;37.544;2023-12-20T02:11:03;2.6;;;0.9;;
40048;SDS011;54524;55.740;37.544;2023-12-20T02:12:04;2.7;;;0.9;;
40048;SDS011;54524;55.740;37.544;2023-12-20T02:13:05;4.8;;;1.1;;
40048;SDS011;54524;55.740;37.544;2023-12-20T02:14:05;4.8;;;1.1;;
40048;SDS011;54524;55.740;37.544;2023-12-20T02:15:06;4.8;;;1.1;;
40048;SDS011;54524;55.740;37.544;2023-12-20T02:16:07;3.3;;;0.9;;
40048;SDS011;54524;55.740;37.544;2023-12-20T02:17:08;3.1;;;0.8;;
40048;SDS011;54524;55.740;37.544;2023-12-20T02:18:08;3.1;;;0.8;;
40048;SDS011;54524;55.740;37.544;2023-12-20T02:19:13;3.1;;;0.8;;
40048;SDS011;54524;55.740;37.544;2023-12-20T02:21:04;1.9;;;0.8;;
40048;SDS011;54524;55.740;37.544;2023-12-20T02:22:05;2.1;;;0.9;;
40048;SDS011;54524;55.740;37.544;2023-12-20T02:23:05;2.6;;;0.9;;
40048;SDS011;54524;55.740;37.544;2023-12-20T02:24:06;2.4;;;0.9;;
40048;SDS011;54524;55.740;37.544;2023-12-20T02:25:06;2.4;;;0.9;;
40048;SDS011;54524;55.740;37.544;2023-12-20T02:26:07;2.4;;;1;;
40048;SDS011;54524;55.740;37.544;2023-12-20T02:27:08;2.1;;;1;;
40048;SDS011;54524;55.740;37.544;2023-12-20T02:28:08;2.1;;;1;;
40048;SDS011;54524;55.740;37.544;2023-12-20T02:29:09;3.3;;;1.1;;
40048;SDS011;54524;55.740;37.544;2023-12-20T02:31:03;3.3;;;1.1;;
40048;SDS011;54524;55.740;37.544;2023-12-20T02:32:03;3.7;;;1.2;;
40048;SDS011;54524;55.740;37.544;2023-12-20T02:33:04;3.7;;;1.2;;
40048;SDS011;54524;55.740;37.544;2023-12-20T02:34:07;3.7;;;1.2;;
40048;SDS011;54524;55.740;37.544;2023-12-20T02:35:08;1.9;;;1.4;;
40048;SDS011;54524;55.740;37.544;2023-12-20T02:36:08;2.1;;;1.3;;
40048;SDS011;54524;55.740;37.544;2023-12-20T02:37:09;2.7;;;1.3;;
40048;SDS011;54524;55.740;37.544;2023-12-20T02:38:09;1.7;;;1.1;;
40048;SDS011;54524;55.740;37.544;2023-12-20T02:39:10;1.7;;;1.1;;
40048;SDS011;54524;55.740;37.544;2023-12-20T02:41:03;1.7;;;1.1;;
40048;SDS011;54524;55.740;37.544;2023-12-20T02:42:03;2.7;;;1.3;;
40048;SDS011;54524;55.740;37.544;2023-12-20T02:43:04;2.7;;;1.3;;
40048;SDS011;54524;55.740;37.544;2023-12-20T02:44:04;2.6;;;1.3;;
40048;SDS011;54524;55.740;37.544;2023-12-20T02:45:06;2.5;;;1.2;;
40048;SDS011;54524;55.740;37.544;2023-12-20T02:46:06;2.3;;;1.2;;
40048;SDS011;54524;55.740;37.544;2023-12-20T02:47:07;2.4;;;1.3;;
40048;SDS011;54524;55.740;37.544;2023-12-20T02:48:07;2.6;;;1.3;;
40048;SDS011;54524;55.740;37.544;2023-12-20T02:49:08;2.9;;;1.3;;
40048;SDS011;54524;55.740;37.544;2023-12-20T02:51:04;4;;;1.2;;
40048;SDS011;54524;55.740;37.544;2023-12-20T02:52:05;4;;;1.2;;
40048;SDS011;54524;55.740;37.544;2023-12-20T02:53:05;4.1;;;1.2;;
40048;SDS011;54524;55.740;37.544;2023-12-20T02:54:06;1.8;;;0.9;;
40048;SDS011;54524;55.740;37.544;2023-12-20T02:55:06;1.7;;;0.8;;
40048;SDS011;54524;55.740;37.544;2023-12-20T02:56:07;1.7;;;0.8;;
40048;SDS011;54524;55.740;37.544;2023-12-20T02:57:07;3;;;0.8;;
40048;SDS011;54524;55.740;37.544;2023-12-20T02:58:08;3.1;;;0.8;;
40048;SDS011;54524;55.740;37.544;2023-12-20T02:59:09;3.3;;;0.8;;
40048;SDS011;54524;55.740;37.544;2023-12-20T03:01:03;2.7;;;0.9;;
40048;SDS011;54524;55.740;37.544;2023-12-20T03:02:04;2.7;;;0.9;;
40048;SDS011;54524;55.740;37.544;2023-12-20T03:03:04;2.6;;;0.9;;
40048;SDS011;54524;55.740;37.544;2023-12-20T03:04:05;1.6;;;0.7;;
40048;SDS011;54524;55.740;37.544;2023-12-20T03:05:06;1.6;;;0.7;;
40048;SDS011;54524;55.740;37.544;2023-12-20T03:06:06;1.6;;;0.7;;
40048;SDS011;54524;55.740;37.544;2023-12-20T03:07:07;2.7;;;0.8;;
40048;SDS011;54524;55.740;37.544;2023-12-20T03:08:07;2.6;;;0.7;;
40048;SDS011;54524;55.740;37.544;2023-12-20T03:09:08;2.6;;;0.7;;
40048;SDS011;54524;55.740;37.544;2023-12-20T03:11:03;2.4;;;1.1;;
40048;SDS011;54524;55.740;37.544;2023-12-20T03:12:04;2.5;;;1.1;;
40048;SDS011;54524;55.740;37.544;2023-12-20T03:13:04;2.1;;;1;;
40048;SDS011;54524;55.740;37.544;2023-12-20T03:14:05;2.2;;;1;;
40048;SDS011;54524;55.740;37.544;2023-12-20T03:15:06;2.3;;;1;;
40048;SDS011;54524;55.740;37.544;2023-12-20T03:16:08;1.8;;;0.8;;
40048;SDS011;54524;55.740;37.544;2023-12-20T03:17:09;1.8;;;0.8;;
40048;SDS011;54524;55.740;37.544;2023-12-20T03:18:09;1.9;;;0.8;;
40048;SDS011;54524;55.740;37.544;2023-12-20T03:19:09;4.3;;;1.2;;
40048;SDS011;54524;55.740;37.544;2023-12-20T03:21:03;4.4;;;1.2;;
40048;SDS011;54524;55.740;37.544;2023-12-20T03:22:04;4.3;;;1.2;;
40048;SDS011;54524;55.740;37.544;2023-12-20T03:23:04;3;;;1.1;;
40048;SDS011;54524;55.740;37.544;2023-12-20T03:24:05;2.8;;;1;;
40048;SDS011;54524;55.740;37.544;2023-12-20T03:25:06;2.9;;;1;;
40048;SDS011;54524;55.740;37.544;2023-12-20T03:26:06;2.8;;;1.1;;
40048;SDS011;54524;55.740;37.544;2023-12-20T03:27:07;2.8;;;1;;
40048;SDS011;54524;55.740;37.544;2023-12-20T03:28:07;2.8;;;1.1;;
40048;SDS011;54524;55.740;37.544;2023-12-20T03:29:08;2.7;;;1;;
40048;SDS011;54524;55.740;37.544;2023-12-20T03:31:03;2;;;1;;
40048;SDS011;54524;55.740;37.544;2023-12-20T03:32:04;2.7;;;1;;
40048;SDS011;54524;55.740;37.544;2023-12-20T03:33:05;2.7;;;1;;
40048;SDS011;54524;55.740;37.544;2023-12-20T03:34:05;2.8;;;1;;
40048;SDS011;54524;55.740;37.544;2023-12-20T03:35:06;3.4;;;1.1;;
40048;SDS011;54524;55.740;37.544;2023-12-20T03:36:06;3.3;;;1.1;;
40048;SDS011;54524;55.740;37.544;2023-12-20T03:37:07;3.4;;;1.1;;
40048;SDS011;54524;55.740;37.544;2023-12-20T03:38:07;4.2;;;1.2;;
40048;SDS011;54524;55.740;37.544;2023-12-20T03:39:08;4.3;;;1.3;;
40048;SDS011;54524;55.740;37.544;2023-12-20T03:41:03;4.7;;;1.2;;
40048;SDS011;54524;55.740;37.544;2023-12-20T03:42:04;4.6;;;1.2;;
40048;SDS011;54524;55.740;37.544;2023-12-20T03:43:04;4.6;;;1.2;;
40048;SDS011;54524;55.740;37.544;2023-12-20T03:44:04;3.5;;;1.1;;
40048;SDS011;54524;55.740;37.544;2023-12-20T03:45:06;3.6;;;1.1;;
40048;SDS011;54524;55.740;37.544;2023-12-20T03:46:07;3.6;;;1.1;;
40048;SDS011;54524;55.740;37.544;2023-12-20T03:47:08;3.3;;;1.1;;
40048;SDS011;54524;55.740;37.544;2023-12-20T03:48:09;3.7;;;1.1;;
40048;SDS011;54524;55.740;37.544;2023-12-20T03:49:09;3.7;;;1.1;;
40048;SDS011;54524;55.740;37.544;2023-12-20T03:51:02;2.7;;;1.1;;
40048;SDS011;54524;55.740;37.544;2023-12-20T03:52:03;2.9;;;1.1;;
40048;SDS011;54524;55.740;37.544;2023-12-20T03:53:03;3.3;;;1.1;;
40048;SDS011;54524;55.740;37.544;2023-12-20T03:54:04;3.6;;;1.2;;
40048;SDS011;54524;55.740;37.544;2023-12-20T03:55:05;3.6;;;1.2;;
40048;SDS011;54524;55.740;37.544;2023-12-20T03:56:05;3.6;;;1.3;;
40048;SDS011;54524;55.740;37.544;2023-12-20T03:57:06;3.6;;;1.3;;
40048;SDS011;54524;55.740;37.544;2023-12-20T03:58:07;3.7;;;1.3;;
40048;SDS011;54524;55.740;37.544;2023-12-20T03:59:07;3.7;;;1.3;;
40048;SDS011;54524;55.740;37.544;2023-12-20T04:01:03;3.7;;;1.4;;
40048;SDS011;54524;55.740;37.544;2023-12-20T04:02:03;4;;;1.4;;
40048;SDS011;54524;55.740;37.544;2023-12-20T04:03:04;4.3;;;1.4;;
40048;SDS011;54524;55.740;37.544;2023-12-20T04:04:05;4;;;1.4;;
40048;SDS011;54524;55.740;37.544;2023-12-20T04:05:06;3.2;;;1.3;;
40048;SDS011;54524;55.740;37.544;2023-12-20T04:06:06;4.3;;;1.5;;
40048;SDS011;54524;55.740;37.544;2023-12-20T04:07:07;4.3;;;1.5;;
40048;SDS011;54524;55.740;37.544;2023-12-20T04:08:09;4.4;;;1.5;;
40048;SDS011;54524;55.740;37.544;2023-12-20T04:09:10;5.1;;;1.8;;
40048;SDS011;54524;55.740;37.544;2023-12-20T04:11:03;4.9;;;1.9;;
40048;SDS011;54524;55.740;37.544;2023-12-20T04:12:03;4.4;;;1.8;;
40048;SDS011;54524;55.740;37.544;2023-12-20T04:13:05;4.5;;;1.8;;
40048;SDS011;54524;55.740;37.544;2023-12-20T04:14:06;4.4;;;1.8;;
40048;SDS011;54524;55.740;37.544;2023-12-20T04:15:07;3.4;;;1.7;;
40048;SDS011;54524;55.740;37.544;2023-12-20T04:16:10;3.4;;;1.7;;
40048;SDS011;54524;55.740;37.544;2023-12-20T04:17:10;3.6;;;1.7;;
40048;SDS011;54524;55.740;37.544;2023-12-20T04:18:11;3.6;;;1.7;;
40048;SDS011;54524;55.740;37.544;2023-12-20T04:19:11;4.4;;;1.7;;
40048;SDS011;54524;55.740;37.544;2023-12-20T04:21:03;4.5;;;1.7;;
40048;SDS011;54524;55.740;37.544;2023-12-20T04:22:03;4;;;1.7;;
40048;SDS011;54524;55.740;37.544;2023-12-20T04:23:04;3.9;;;1.7;;
40048;SDS011;54524;55.740;37.544;2023-12-20T04:24:05;3.9;;;1.7;;
40048;SDS011;54524;55.740;37.544;2023-12-20T04:25:05;4.3;;;1.8;;
40048;SDS011;54524;55.740;37.544;2023-12-20T04:26:06;3.3;;;1.7;;
40048;SDS011;54524;55.740;37.544;2023-12-20T04:27:07;3.3;;;1.7;;
40048;SDS011;54524;55.740;37.544;2023-12-20T04:28:08;4;;;1.9;;
40048;SDS011;54524;55.740;37.544;2023-12-20T04:29:08;4.1;;;1.9;;
40048;SDS011;54524;55.740;37.544;2023-12-20T04:31:03;4.3;;;1.6;;
40048;SDS011;54524;55.740;37.544;2023-12-20T04:32:04;4.5;;;1.6;;
40048;SDS011;54524;55.740;37.544;2023-12-20T04:33:04;4.4;;;1.6;;
40048;SDS011;54524;55.740;37.544;2023-12-20T04:34:05;3.4;;;1.7;;
40048;SDS011;54524;55.740;37.544;2023-12-20T04:35:05;3.5;;;1.8;;
40048;SDS011;54524;55.740;37.544;2023-12-20T04:36:06;3.3;;;1.8;;
40048;SDS011;54524;55.740;37.544;2023-12-20T04:37:06;5.5;;;2.1;;
40048;SDS011;54524;55.740;37.544;2023-12-20T04:38:07;5.7;;;2.1;;
40048;SDS011;54524;55.740;37.544;2023-12-20T04:39:07;5.7;;;2.1;;
40048;SDS011;54524;55.740;37.544;2023-12-20T04:41:03;4.8;;;2.2;;
40048;SDS011;54524;55.740;37.544;2023-12-20T04:42:04;4.8;;;2.2;;
40048;SDS011;54524;55.740;37.544;2023-12-20T04:43:04;3.6;;;2.3;;
40048;SDS011;54524;55.740;37.544;2023-12-20T04:44:05;3.5;;;2.3;;
40048;SDS011;54524;55.740;37.544;2023-12-20T04:45:06;3.4;;;2.3;;
40048;SDS011;54524;55.740;37.544;2023-12-20T04:46:07;5;;;2.6;;
40048;SDS011;54524;55.740;37.544;2023-12-20T04:47:07;5.1;;;2.6;;
40048;SDS011;54524;55.740;37.544;2023-12-20T04:48:08;5.1;;;2.6;;
40048;SDS011;54524;55.740;37.544;2023-12-20T04:49:08;5.7;;;2.7;;
40048;SDS011;54524;55.740;37.544;2023-12-20T04:51:03;5.6;;;2.7;;
40048;SDS011;54524;55.740;37.544;2023-12-20T04:52:04;7.2;;;2.6;;
40048;SDS011;54524;55.740;37.544;2023-12-20T04:53:04;7.2;;;2.6;;
40048;SDS011;54524;55.740;37.544;2023-12-20T04:54:05;7;;;2.6;;
40048;SDS011;54524;55.740;37.544;2023-12-20T04:55:05;6.9;;;2.6;;
40048;SDS011;54524;55.740;37.544;2023-12-20T04:56:06;5.8;;;2.5;;
40048;SDS011;54524;55.740;37.544;2023-12-20T04:57:06;6;;;2.5;;
40048;SDS011;54524;55.740;37.544;2023-12-20T04:58:07;6;;;2.5;;
40048;SDS011;54524;55.740;37.544;2023-12-20T04:59:08;4.9;;;1.9;;
40048;SDS011;54524;55.740;37.544;2023-12-20T05:01:03;4.7;;;1.9;;
40048;SDS011;54524;55.740;37.544;2023-12-20T05:02:03;5.4;;;1.9;;
40048;SDS011;54524;55.740;37.544;2023-12-20T05:03:04;4.1;;;1.6;;
40048;SDS011;54524;55.740;37.544;2023-12-20T05:04:05;4.1;;;1.6;;
40048;SDS011;54524;55.740;37.544;2023-12-20T05:05:05;3.7;;;1.5;;
40048;SDS011;54524;55.740;37.544;2023-12-20T05:06:06;5.3;;;1.2;;
40048;SDS011;54524;55.740;37.544;2023-12-20T05:07:06;5.1;;;1.2;;
40048;SDS011;54524;55.740;37.544;2023-12-20T05:08:07;4.5;;;1.2;;
40048;SDS011;54524;55.740;37.544;2023-12-20T05:09:07;3.8;;;1.2;;
40048;SDS011;54524;55.740;37.544;2023-12-20T05:11:03;3.7;;;1.2;;
40048;SDS011;54524;55.740;37.544;2023-12-20T05:12:04;4.5;;;1.6;;
40048;SDS011;54524;55.740;37.544;2023-12-20T05:13:04;4.7;;;1.7;;
40048;SDS011;54524;55.740;37.544;2023-12-20T05:14:05;4.7;;;1.7;;
40048;SDS011;54524;55.740;37.544;2023-12-20T05:15:06;2.7;;;1.4;;
40048;SDS011;54524;55.740;37.544;2023-12-20T05:16:06;2.7;;;1.4;;
40048;SDS011;54524;55.740;37.544;2023-12-20T05:17:07;2.9;;;1.4;;
40048;SDS011;54524;55.740;37.544;2023-12-20T05:18:07;4.6;;;1.4;;
40048;SDS011;54524;55.740;37.544;2023-12-20T05:19:08;4.8;;;1.4;;
40048;SDS011;54524;55.740;37.544;2023-12-20T05:21:03;4.5;;;1.6;;
40048;SDS011;54524;55.740;37.544;2023-12-20T05:22:04;4.4;;;1.5;;
40048;SDS011;54524;55.740;37.544;2023-12-20T05:23:04;4.5;;;1.6;;
40048;SDS011;54524;55.740;37.544;2023-12-20T05:24:05;6.2;;;1.7;;
40048;SDS011;54524;55.740;37.544;2023-12-20T05:25:06;6.2;;;1.7;;
40048;SDS011;54524;55.740;37.544;2023-12-20T05:26:06;6.9;;;1.7;;
40048;SDS011;54524;55.740;37.544;2023-12-20T05:27:07;6.5;;;2.4;;
40048;SDS011;54524;55.740;37.544;2023-12-20T05:28:07;6.8;;;2.5;;
40048;SDS011;54524;55.740;37.544;2023-12-20T05:29:08;6.6;;;2.4;;
40048;SDS011;54524;55.740;37.544;2023-12-20T05:31:03;6.30;;;1.20;;
40048;SDS011;54524;55.740;37.544;2023-12-20T05:32:04;6.9;;;2.3;;
40048;SDS011;54524;55.740;37.544;2023-12-20T05:33:04;6.7;;;2.3;;
40048;SDS011;54524;55.740;37.544;2023-12-20T05:34:05;5.7;;;1.8;;
40048;SDS011;54524;55.740;37.544;2023-12-20T05:35:05;6;;;1.9;;
40048;SDS011;54524;55.740;37.544;2023-12-20T05:36:06;5.9;;;1.9;;
40048;SDS011;54524;55.740;37.544;2023-12-20T05:37:11;5.2;;;1.9;;
40048;SDS011;54524;55.740;37.544;2023-12-20T05:38:11;5.2;;;1.9;;
40048;SDS011;54524;55.740;37.544;2023-12-20T05:39:12;5.5;;;2;;
40048;SDS011;54524;55.740;37.544;2023-12-20T05:41:03;5;;;1.8;;
40048;SDS011;54524;55.740;37.544;2023-12-20T05:42:04;5;;;1.8;;
40048;SDS011;54524;55.740;37.544;2023-12-20T05:43:04;5;;;1.7;;
40048;SDS011;54524;55.740;37.544;2023-12-20T05:44:05;5.5;;;1.7;;
40048;SDS011;54524;55.740;37.544;2023-12-20T05:45:05;5.4;;;1.6;;
40048;SDS011;54524;55.740;37.544;2023-12-20T05:46:06;3.9;;;1.7;;
40048;SDS011;54524;55.740;37.544;2023-12-20T05:47:07;3.7;;;1.7;;
40048;SDS011;54524;55.740;37.544;2023-12-20T05:48:07;3.7;;;1.7;;
40048;SDS011;54524;55.740;37.544;2023-12-20T05:49:08;3.3;;;1.6;;
40048;SDS011;54524;55.740;37.544;2023-12-20T05:51:03;3.5;;;1.6;;
40048;SDS011;54524;55.740;37.544;2023-12-20T05:52:03;6.3;;;2;;
40048;SDS011;54524;55.740;37.544;2023-12-20T05:53:04;6.3;;;2;;
40048;SDS011;54524;55.740;37.544;2023-12-20T05:54:05;6.6;;;2;;
40048;SDS011;54524;55.740;37.544;2023-12-20T05:55:05;3.4;;;1.8;;
40048;SDS011;54524;55.740;37.544;2023-12-20T05:56:06;3.3;;;1.8;;
40048;SDS011;54524;55.740;37.544;2023-12-20T05:57:07;3.3;;;1.8;;
40048;SDS011;54524;55.740;37.544;2023-12-20T05:58:07;4.9;;;1.8;;
40048;SDS011;54524;55.740;37.544;2023-12-20T05:59:08;4.9;;;1.8;;
40048;SDS011;54524;55.740;37.544;2023-12-20T06:01:04;5.2;;;1.8;;
40048;SDS011;54524;55.740;37.544;2023-12-20T06:02:04;5.1;;;1.8;;
40048;SDS011;54524;55.740;37.544;2023-12-20T06:03:05;6;;;1.9;;
40048;SDS011;54524;55.740;37.544;2023-12-20T06:04:05;5.4;;;1.9;;
40048;SDS011;54524;55.740;37.544;2023-12-20T06:05:06;5.4;;;1.9;;
40048;SDS011;54524;55.740;37.544;2023-12-20T06:06:07;5.1;;;1.9;;
40048;SDS011;54524;55.740;37.544;2023-12-20T06:07:08;3.9;;;1.7;;
40048;SDS011;54524;55.740;37.544;2023-12-20T06:08:08;3.9;;;1.7;;
40048;SDS011;54524;55.740;37.544;2023-12-20T06:09:09;3.9;;;1.7;;
40048;SDS011;54524;55.740;37.544;2023-12-20T06:11:03;3.9;;;1.9;;
40048;SDS011;54524;55.740;37.544;2023-12-20T06:12:04;3.9;;;1.9;;
40048;SDS011;54524;55.740;37.544;2023-12-20T06:13:04;4.1;;;2;;
40048;SDS011;54524;55.740;37.544;2023-12-20T06:14:06;5;;;1.9;;
40048;SDS011;54524;55.740;37.544;2023-12-20T06:15:07;5.2;;;2;;
40048;SDS011;54524;55.740;37.544;2023-12-20T06:16:08;5.2;;;2;;
40048;SDS011;54524;55.740;37.544;2023-12-20T06:17:08;5;;;2.1;;
40048;SDS011;54524;55.740;37.544;2023-12-20T06:18:09;5.1;;;2.1;;
40048;SDS011;54524;55.740;37.544;2023-12-20T06:19:09;5.3;;;2.1;;
40048;SDS011;54524;55.740;37.544;2023-12-20T06:21:03;4.4;;;1.9;;
40048;SDS011;54524;55.740;37.544;2023-12-20T06:22:04;4.4;;;1.9;;
40048;SDS011;54524;55.740;37.544;2023-12-20T06:23:05;0;;;0;;
40048;SDS011;54524;55.740;37.544;2023-12-20T06:24:05;3.9;;;1.9;;
40048;SDS011;54524;55.740;37.544;2023-12-20T06:25:06;3.7;;;1.9;;
40048;SDS011;54524;55.740;37.544;2023-12-20T06:26:07;4.5;;;2;;
40048;SDS011;54524;55.740;37.544;2023-12-20T06:27:07;4;;;1.9;;
40048;SDS011;54524;55.740;37.544;2023-12-20T06:28:08;4.1;;;1.9;;
40048;SDS011;54524;55.740;37.544;2023-12-20T06:29:10;4.3;;;1.8;;
40048;SDS011;54524;55.740;37.544;2023-12-20T06:31:03;4.1;;;1.8;;
40048;SDS011;54524;55.740;37.544;2023-12-20T06:32:04;3.7;;;1.9;;
40048;SDS011;54524;55.740;37.544;2023-12-20T06:33:05;3.8;;;1.9;;
40048;SDS011;54524;55.740;37.544;2023-12-20T06:34:06;3.8;;;1.9;;
40048;SDS011;54524;55.740;37.544;2023-12-20T06:35:08;4.3;;;1.9;;
40048;SDS011;54524;55.740;37.544;2023-12-20T06:36:10;4.3;;;1.9;;
40048;SDS011;54524;55.740;37.544;2023-12-20T06:37:11;4.3;;;1.9;;
40048;SDS011;54524;55.740;37.544;2023-12-20T06:38:12;5.1;;;1.8;;
40048;SDS011;54524;55.740;37.544;2023-12-20T06:39:12;5.2;;;1.7;;
40048;SDS011;54524;55.740;37.544;2023-12-20T06:41:03;3.1;;;1.6;;
40048;SDS011;54524;55.740;37.544;2023-12-20T06:42:03;3;;;1.5;;
40048;SDS011;54524;55.740;37.544;2023-12-20T06:43:04;3;;;1.5;;
40048;SDS011;54524;55.740;37.544;2023-12-20T06:44:06;3.9;;;1.8;;
40048;SDS011;54524;55.740;37.544;2023-12-20T06:45:07;3.9;;;1.8;;
40048;SDS011;54524;55.740;37.544;2023-12-20T06:46:08;3.4;;;1.7;;
40048;SDS011;54524;55.740;37.544;2023-12-20T06:47:09;3.5;;;1.6;;
40048;SDS011;54524;55.740;37.544;2023-12-20T06:48:09;3.3;;;1.5;;
40048;SDS011;54524;55.740;37.544;2023-12-20T06:49:12;3.3;;;1.5;;
40048;SDS011;54524;55.740;37.544;2023-12-20T06:51:03;4.2;;;1.6;;